Time;durP1;ratioP1;P1;durP2;ratioP2;P2;SDS_P1;SDS_P2;PMS_P1;PMS_P2;Temp;Humidity;BMP_temperature;BMP_pressure;BME280_temperature;BME280_humidity;BME280_pressure;Samples;Min_cycle;Max_cycle;Signal;HPM_P1;HPM_P2
2021/06/19 00:00:51;;;;;;;6.83;2.90;;;;;;;20.40;68.91;101039.55;1726332;83;21445;-58
2021/06/19 00:03:57;;;;;;;9.40;3.65;;;;;;;20.39;68.98;101034.21;1726400;83;21444;-57
2021/06/19 00:07:04;;;;;;;7.00;2.98;;;;;;;20.37;69.15;101032.17;1726115;83;21259;-57
2021/06/19 00:10:11;;;;;;;7.75;3.37;;;;;;;20.38;69.25;101035.27;1726129;83;21373;-57
2021/06/19 00:13:17;;;;;;;5.87;3.77;;;;;;;20.35;69.16;101032.93;1726061;83;21267;-57
2021/06/19 00:16:22;;;;;;;9.48;3.20;;;;;;;20.30;69.16;101036.91;1726137;83;21263;-57
2021/06/19 00:19:27;;;;;;;6.65;3.40;;;;;;;20.28;69.18;101029.36;1726166;83;21520;-57
2021/06/19 00:22:33;;;;;;;11.28;3.87;;;;;;;20.25;69.29;101026.47;1726096;83;21413;-57
2021/06/19 00:25:38;;;;;;;6.75;3.02;;;;;;;20.24;69.37;101033.64;1725922;83;21362;-56
2021/06/19 00:28:43;;;;;;;10.93;3.55;;;;;;;20.23;69.45;101033.34;1726155;83;21401;-56
2021/06/19 00:31:50;;;;;;;11.80;3.15;;;;;;;20.21;69.56;101038.27;1725849;83;21357;-59
2021/06/19 00:34:55;;;;;;;14.10;3.75;;;;;;;20.18;69.60;101028.45;1725820;83;21381;-57
2021/06/19 00:38:00;;;;;;;9.65;3.83;;;;;;;20.15;69.57;101026.64;1725998;83;21357;-56
2021/06/19 00:41:06;;;;;;;9.10;3.87;;;;;;;20.13;69.78;101025.97;1725757;83;21243;-58
2021/06/19 00:44:15;;;;;;;8.95;3.70;;;;;;;20.11;69.91;101028.98;1725996;83;21436;-58
2021/06/19 00:47:20;;;;;;;10.08;3.37;;;;;;;20.09;70.01;101026.95;1726088;83;21365;-58
2021/06/19 00:50:27;;;;;;;7.53;3.37;;;;;;;20.07;70.11;101036.07;1725993;83;21385;-58
2021/06/19 00:53:33;;;;;;;12.73;3.62;;;;;;;20.03;70.16;101035.31;1725949;83;21294;-58
2021/06/19 00:56:39;;;;;;;19.30;3.50;;;;;;;20.00;70.36;101032.98;1725586;83;21361;-57
2021/06/19 00:59:45;;;;;;;10.53;2.65;;;;;;;19.94;70.49;101035.27;1722020;81;21349;-56
2021/06/19 01:02:50;;;;;;;6.60;2.52;;;;;;;19.91;70.75;101038.49;1717874;83;21275;-58
2021/06/19 01:05:54;;;;;;;12.95;2.67;;;;;;;19.88;70.93;101033.37;1717841;83;22077;-58
2021/06/19 01:09:00;;;;;;;6.35;3.05;;;;;;;19.87;71.19;101033.07;1717779;83;21203;-58
2021/06/19 01:12:06;;;;;;;11.60;3.30;;;;;;;19.88;71.20;101037.55;1718461;83;21350;-57
2021/06/19 01:15:13;;;;;;;7.90;3.67;;;;;;;19.87;71.22;101033.07;1718233;83;21215;-57
2021/06/19 01:18:17;;;;;;;9.40;3.95;;;;;;;19.83;71.33;101034.04;1718343;83;21207;-58
2021/06/19 01:21:29;;;;;;;8.05;4.10;;;;;;;19.82;71.41;101030.92;1732222;82;21804;-56
2021/06/19 01:24:37;;;;;;;11.70;4.17;;;;;;;19.81;71.14;101026.98;1748190;82;21362;-57
2021/06/19 01:27:43;;;;;;;10.65;4.28;;;;;;;19.81;71.14;101026.98;1748079;82;22370;-56
2021/06/19 01:30:48;;;;;;;12.20;3.83;;;;;;;19.75;71.49;101037.59;1748024;82;21219;-57
2021/06/19 01:33:55;;;;;;;20.55;3.72;;;;;;;19.69;71.57;101027.36;1747945;82;21789;-58
2021/06/19 01:37:00;;;;;;;17.95;3.98;;;;;;;19.61;71.75;101034.55;1742946;82;21188;-57
2021/06/19 01:40:20;;;;;;;21.93;5.10;;;;;;;19.57;72.01;101044.41;1707137;84;21208;-57
2021/06/19 01:43:25;;;;;;;44.03;4.80;;;;;;;19.53;72.15;101045.36;1743409;82;21323;-57
2021/06/19 01:46:31;;;;;;;22.15;4.75;;;;;;;19.51;72.28;101053.05;1707477;84;21222;-58
2021/06/19 01:49:41;;;;;;;14.47;3.65;;;;;;;19.47;72.36;101048.16;1743534;82;21366;-58
2021/06/19 01:52:47;;;;;;;14.30;3.00;;;;;;;19.44;72.47;101063.87;1707608;84;21204;-59
2021/06/19 01:55:52;;;;;;;12.03;2.95;;;;;;;19.39;72.59;101067.83;1743402;82;21366;-58
2021/06/19 01:58:57;;;;;;;46.65;6.17;;;;;;;19.36;72.76;101064.92;1707598;84;21349;-57
2021/06/19 02:02:03;;;;;;;11.95;3.15;;;;;;;19.34;72.93;101064.31;1742553;81;21382;-57
2021/06/19 02:05:08;;;;;;;11.15;3.40;;;;;;;19.31;73.09;101066.97;1708242;83;21559;-57
2021/06/19 02:08:15;;;;;;;20.48;3.80;;;;;;;19.30;73.23;101070.83;1660880;85;21248;-58
2021/06/19 02:11:20;;;;;;;13.78;3.20;;;;;;;19.29;73.40;101076.07;1707825;83;21254;-57
2021/06/19 02:14:25;;;;;;;26.07;4.67;;;;;;;19.31;73.54;101078.08;1688132;85;21204;-58
2021/06/19 02:17:31;;;;;;;9.70;4.00;;;;;;;19.33;73.57;101079.24;1688583;83;21216;-58
2021/06/19 02:20:36;;;;;;;9.28;3.00;;;;;;;19.33;73.57;101077.86;1708004;83;21250;-58
2021/06/19 02:23:41;;;;;;;8.53;3.20;;;;;;;19.33;73.65;101078.72;1662184;85;21267;-59
2021/06/19 02:26:48;;;;;;;8.98;3.17;;;;;;;19.34;73.65;101077.64;1707810;83;21295;-57
2021/06/19 02:29:53;;;;;;;10.82;3.62;;;;;;;19.37;73.71;101083.31;1688106;85;21433;-56
2021/06/19 02:32:58;;;;;;;13.60;3.98;;;;;;;19.39;73.76;101077.02;1689603;83;21220;-57
2021/06/19 02:36:04;;;;;;;9.48;3.70;;;;;;;19.43;73.80;101081.05;1691272;83;21331;-57
2021/06/19 02:39:10;;;;;;;14.98;3.20;;;;;;;19.51;73.74;101086.91;1690302;83;21268;-58
2021/06/19 02:42:16;;;;;;;7.72;3.00;;;;;;;19.61;73.65;101090.10;1688935;83;21213;-56
2021/06/19 02:45:21;;;;;;;8.20;2.58;;;;;;;19.69;73.42;101090.73;1689259;83;21402;-56
2021/06/19 02:48:26;;;;;;;9.48;2.90;;;;;;;19.75;73.23;101093.16;1689788;83;21227;-57
2021/06/19 02:51:34;;;;;;;14.58;3.62;;;;;;;19.80;73.11;101093.37;1690134;83;21383;-57
2021/06/19 02:54:41;;;;;;;13.80;3.15;;;;;;;19.86;72.91;101103.59;1690392;83;21477;-58
2021/06/19 02:57:47;;;;;;;11.18;3.75;;;;;;;19.91;72.94;101101.02;1688207;84;21236;-58
2021/06/19 03:00:53;;;;;;;10.18;3.08;;;;;;;19.99;72.82;101102.17;1707815;83;21231;-57
2021/06/19 03:04:00;;;;;;;18.73;4.10;;;;;;;20.03;72.52;101099.26;1705398;84;21186;-57
2021/06/19 03:07:05;;;;;;;16.85;3.92;;;;;;;20.10;72.60;101114.86;1654145;85;21304;-56
2021/06/19 03:10:13;;;;;;;7.62;2.83;;;;;;;20.16;72.42;101107.58;1741253;82;21267;-57
2021/06/19 03:13:20;;;;;;;13.75;3.40;;;;;;;20.17;72.03;101110.14;1740848;82;21259;-56
2021/06/19 03:16:25;;;;;;;11.03;3.12;;;;;;;20.20;72.10;101106.91;1740939;82;21275;-57
2021/06/19 03:19:31;;;;;;;6.50;3.22;;;;;;;20.28;72.06;101104.45;1741210;82;21192;-57
2021/06/19 03:22:39;;;;;;;14.03;4.53;;;;;;;20.41;71.76;101105.74;1740582;82;21208;-57
2021/06/19 03:25:46;;;;;;;37.55;6.92;;;;;;;20.52;71.48;101105.03;1705131;84;21263;-55
2021/06/19 03:28:51;;;;;;;17.25;5.12;;;;;;;20.60;71.04;101108.95;1705326;84;21265;-57
2021/06/19 03:31:56;;;;;;;10.85;3.50;;;;;;;20.61;70.59;101110.67;1705515;83;21220;-58
2021/06/19 03:35:03;;;;;;;15.28;4.72;;;;;;;20.64;70.55;101110.23;1705470;83;21304;-57
2021/06/19 03:38:09;;;;;;;7.53;4.05;;;;;;;20.68;70.34;101112.33;1690670;83;21263;-57
2021/06/19 03:41:15;;;;;;;14.23;4.53;;;;;;;20.69;70.61;101104.84;1657461;85;21261;-58
2021/06/19 03:44:20;;;;;;;10.93;4.17;;;;;;;20.70;70.60;101103.23;1705951;83;21349;-57
2021/06/19 03:47:25;;;;;;;11.40;3.60;;;;;;;20.75;70.68;101110.90;1705340;84;21244;-57
2021/06/19 03:50:32;;;;;;;12.33;3.60;;;;;;;20.79;70.20;101111.61;1705448;83;21375;-56
2021/06/19 03:53:37;;;;;;;11.28;3.65;;;;;;;20.84;70.14;101122.07;1655631;85;21683;-57
2021/06/19 03:56:43;;;;;;;10.28;3.83;;;;;;;20.92;70.14;101114.84;1705679;83;21227;-56
2021/06/19 03:59:48;;;;;;;12.03;3.77;;;;;;;21.03;69.89;101111.89;1705345;84;21764;-56
2021/06/19 04:02:56;;;;;;;14.47;4.08;;;;;;;21.07;69.57;101111.77;1706900;80;21235;-56
2021/06/19 04:06:00;;;;;;;9.15;3.98;;;;;;;21.08;69.03;101112.06;1658807;85;21774;-56
2021/06/19 04:09:06;;;;;;;10.28;3.90;;;;;;;21.09;68.81;101109.05;1704325;83;21231;-55
2021/06/19 04:12:13;;;;;;;12.50;4.50;;;;;;;21.19;68.89;101106.62;1705434;84;21382;-56
2021/06/19 04:15:20;;;;;;;15.18;4.20;;;;;;;21.32;68.79;101105.66;1706605;83;21685;-58
2021/06/19 04:18:26;;;;;;;9.30;3.60;;;;;;;21.46;68.12;101114.20;1705756;83;21383;-58
2021/06/19 04:21:30;;;;;;;12.78;3.83;;;;;;;21.58;68.20;101104.02;1653156;85;21309;-57
2021/06/19 04:24:38;;;;;;;11.18;3.30;;;;;;;21.70;68.00;101108.60;1741676;82;21235;-57
2021/06/19 04:27:52;;;;;;;11.57;3.15;;;;;;;21.82;67.21;101116.53;1740705;82;21228;-57
2021/06/19 04:31:00;;;;;;;12.35;3.12;;;;;;;21.90;67.08;101119.55;1741043;82;21243;-56
2021/06/19 04:34:08;;;;;;;10.32;3.20;;;;;;;21.96;66.99;101113.90;1708680;82;21244;-58
2021/06/19 04:37:16;;;;;;;5.30;2.70;;;;;;;21.96;66.49;101112.50;1660657;86;21344;-58
2021/06/19 04:40:48;;;;;;;12.07;2.50;;;;;;;22.00;66.38;101105.92;1718356;82;21251;-57
2021/06/19 04:47:05;;;;;;;12.75;2.95;;;;;;;22.24;65.77;101104.98;1718226;83;21278;-57
2021/06/19 04:50:11;;;;;;;9.10;2.50;;;;;;;22.39;65.35;101108.77;1718529;83;21247;-56
2021/06/19 04:53:19;;;;;;;9.83;3.10;;;;;;;22.50;65.21;101116.34;1718386;83;21238;-56
2021/06/19 04:56:25;;;;;;;6.78;2.70;;;;;;;22.56;64.96;101114.03;1718308;83;21282;-56
2021/06/19 04:59:30;;;;;;;8.38;2.75;;;;;;;22.62;64.14;101108.89;1718292;83;21236;-57
2021/06/19 05:02:36;;;;;;;7.42;2.70;;;;;;;22.74;64.12;101110.63;1718336;83;21183;-56
2021/06/19 05:05:42;;;;;;;16.40;2.72;;;;;;;22.91;63.70;101108.86;1704700;80;21960;-56
2021/06/19 05:08:47;;;;;;;8.03;2.90;;;;;;;23.06;62.85;101112.06;1703197;84;21312;-56
2021/06/19 05:11:52;;;;;;;10.95;3.00;;;;;;;23.20;62.21;101107.09;1702840;84;21209;-57
2021/06/19 05:15:00;;;;;;;11.22;2.67;;;;;;;23.30;61.25;101101.81;1703107;84;21397;-56
2021/06/19 05:18:05;;;;;;;9.00;2.70;;;;;;;23.42;60.96;101095.70;1703023;84;21225;-56
2021/06/19 05:21:10;;;;;;;6.20;2.52;;;;;;;23.53;60.60;101096.25;1703414;84;21382;-56
2021/06/19 05:24:17;;;;;;;8.38;2.58;;;;;;;23.57;60.17;101101.11;1703126;84;22019;-57
2021/06/19 05:27:22;;;;;;;5.78;2.80;;;;;;;23.56;59.76;101105.55;1702769;84;21358;-59
2021/06/19 05:30:28;;;;;;;17.77;3.30;;;;;;;23.57;59.87;101095.52;1703029;84;21212;-57
2021/06/19 05:33:34;;;;;;;10.40;2.55;;;;;;;23.69;60.17;101087.66;1702594;84;21280;-57
2021/06/19 05:36:40;;;;;;;17.15;3.10;;;;;;;23.80;59.44;101093.23;1703117;84;21374;-58
2021/06/19 05:39:46;;;;;;;10.32;2.70;;;;;;;23.89;58.44;101095.97;1703119;84;21264;-58
2021/06/19 05:42:52;;;;;;;5.45;2.22;;;;;;;24.01;58.36;101097.36;1703341;84;21359;-58
2021/06/19 05:45:59;;;;;;;11.48;2.70;;;;;;;24.13;58.03;101094.01;1703015;84;21421;-58
2021/06/19 05:49:05;;;;;;;7.75;2.62;;;;;;;24.27;58.35;101101.02;1703173;84;21413;-58
2021/06/19 05:52:11;;;;;;;9.83;2.90;;;;;;;24.37;56.50;101092.84;1702959;84;21213;-56
2021/06/19 05:55:17;;;;;;;7.10;2.35;;;;;;;24.43;56.45;101096.05;1703117;84;21238;-57
2021/06/19 05:58:23;;;;;;;9.33;2.15;;;;;;;24.43;56.01;101092.70;1708766;83;21197;-56
2021/06/19 06:01:33;;;;;;;9.30;2.20;;;;;;;24.45;56.07;101091.88;1731407;82;21331;-58
2021/06/19 06:04:42;;;;;;;4.08;1.90;;;;;;;24.42;55.91;101089.58;1732074;81;21382;-57
2021/06/19 06:07:48;;;;;;;11.18;2.30;;;;;;;24.46;56.55;101087.14;1753791;82;21504;-58
2021/06/19 06:10:54;;;;;;;16.23;3.05;;;;;;;24.49;56.57;101093.09;1753734;82;21342;-57
2021/06/19 06:14:00;;;;;;;10.40;2.55;;;;;;;24.51;56.79;101104.91;1727436;83;21246;-54
2021/06/19 06:17:07;;;;;;;6.08;2.12;;;;;;;24.50;56.70;101100.38;1752945;82;21507;-58
2021/06/19 06:20:14;;;;;;;11.30;2.33;;;;;;;24.50;57.09;101105.98;1729885;83;21368;-57
2021/06/19 06:23:23;;;;;;;12.20;2.40;;;;;;;24.59;56.76;101112.88;1729730;83;21234;-57
2021/06/19 06:26:27;;;;;;;11.53;2.50;;;;;;;24.69;56.76;101115.06;1709981;84;21252;-56
2021/06/19 06:29:32;;;;;;;14.10;2.55;;;;;;;24.73;56.00;101119.94;1695091;83;21286;-56
2021/06/19 06:32:37;;;;;;;16.95;3.17;;;;;;;24.79;55.29;101111.92;1748264;82;21252;-58
2021/06/19 06:35:43;;;;;;;13.35;2.40;;;;;;;24.84;55.16;101119.57;1748992;82;21367;-57
2021/06/19 06:38:48;;;;;;;16.07;3.05;;;;;;;24.94;55.13;101122.00;1749457;82;21202;-58
2021/06/19 06:41:55;;;;;;;15.60;2.58;;;;;;;25.10;55.16;101119.49;1749227;82;21194;-58
2021/06/19 06:45:00;;;;;;;7.83;2.45;;;;;;;25.27;55.13;101118.41;1749410;82;21403;-57
2021/06/19 06:48:06;;;;;;;11.65;2.58;;;;;;;25.38;54.95;101116.10;1749315;82;21335;-57
2021/06/19 06:51:11;;;;;;;12.58;2.67;;;;;;;25.43;54.21;101113.93;1749073;82;21402;-57
2021/06/19 06:54:19;;;;;;;5.90;2.58;;;;;;;25.49;53.77;101110.96;1748829;82;21225;-57
2021/06/19 06:57:25;;;;;;;10.70;2.40;;;;;;;25.54;54.33;101108.78;1748802;82;21351;-57
2021/06/19 07:00:30;;;;;;;11.63;2.85;;;;;;;25.64;53.88;101104.75;1766406;80;21889;-56
2021/06/19 07:03:35;;;;;;;15.32;3.20;;;;;;;25.78;54.11;101094.28;1739136;82;21223;-56
2021/06/19 07:06:40;;;;;;;10.82;3.20;;;;;;;25.88;53.61;101112.67;1745314;80;21327;-57
2021/06/19 07:09:46;;;;;;;8.50;2.20;;;;;;;25.98;54.01;101100.75;1702592;84;21410;-58
2021/06/19 07:12:53;;;;;;;7.97;3.20;;;;;;;26.14;53.46;101106.91;1704481;82;21351;-58
2021/06/19 07:15:59;;;;;;;8.93;2.55;;;;;;;26.09;52.25;101112.44;1702886;84;21212;-56
2021/06/19 07:19:05;;;;;;;7.62;2.20;;;;;;;26.07;52.68;101115.52;1702368;84;21860;-58
2021/06/19 07:22:11;;;;;;;8.18;2.40;;;;;;;26.02;53.25;101111.80;1702758;84;21260;-58
2021/06/19 07:25:18;;;;;;;11.18;2.92;;;;;;;26.02;53.36;101101.41;1709159;82;21237;-58
2021/06/19 07:28:23;;;;;;;13.78;3.10;;;;;;;26.17;53.58;101104.97;1710069;84;21374;-56
2021/06/19 07:31:29;;;;;;;7.80;2.70;;;;;;;26.34;53.42;101097.33;1704427;83;21355;-56
2021/06/19 07:34:34;;;;;;;11.88;2.60;;;;;;;26.42;52.04;101089.30;1716502;83;21351;-57
2021/06/19 07:37:39;;;;;;;10.60;2.70;;;;;;;26.36;51.87;101085.28;1679037;85;22013;-56
2021/06/19 07:40:47;;;;;;;9.98;2.67;;;;;;;26.27;51.77;101088.27;1682821;84;21248;-56
2021/06/19 07:43:54;;;;;;;10.38;2.33;;;;;;;26.18;51.14;101083.66;1673133;84;21598;-58
2021/06/19 07:47:00;;;;;;;7.67;1.98;;;;;;;26.14;52.23;101085.84;1691224;84;21395;-58
2021/06/19 07:50:05;;;;;;;9.15;2.00;;;;;;;26.13;52.11;101079.95;1674006;84;21234;-57
2021/06/19 07:53:13;;;;;;;8.10;2.20;;;;;;;26.13;52.13;101075.74;1655431;86;21201;-57
2021/06/19 07:56:17;;;;;;;11.33;2.60;;;;;;;26.22;51.99;101067.14;1722062;83;21892;-58
2021/06/19 07:59:22;;;;;;;13.55;2.40;;;;;;;26.23;51.15;101068.28;1730415;82;21335;-57
2021/06/19 08:02:27;;;;;;;10.85;2.22;;;;;;;26.18;51.53;101063.15;1730700;82;21359;-57
2021/06/19 08:05:35;;;;;;;9.30;2.20;;;;;;;26.25;51.26;101060.45;1730234;82;21209;-58
2021/06/19 08:08:42;;;;;;;15.45;2.40;;;;;;;26.35;50.87;101057.75;1730316;81;21268;-58
2021/06/19 08:11:48;;;;;;;10.35;2.00;;;;;;;26.40;51.20;101053.60;1730697;82;21749;-59
2021/06/19 08:14:55;;;;;;;10.48;2.20;;;;;;;26.44;50.67;101055.33;1730769;82;21421;-53
2021/06/19 08:18:01;;;;;;;11.22;2.25;;;;;;;26.53;50.60;101046.72;1731393;82;21320;-54
2021/06/19 08:21:09;;;;;;;14.15;2.33;;;;;;;26.60;50.58;101040.34;1723654;82;21240;-54
2021/06/19 08:24:17;;;;;;;8.45;2.42;;;;;;;26.60;50.74;101033.87;1719623;83;21344;-56
2021/06/19 08:27:25;;;;;;;9.28;1.98;;;;;;;26.62;51.30;101035.32;1732456;82;21398;-54
2021/06/19 08:30:31;;;;;;;9.48;2.17;;;;;;;26.66;50.03;101033.69;1731579;83;21726;-55
2021/06/19 08:33:35;;;;;;;8.53;2.20;;;;;;;26.63;49.74;101035.60;1724548;83;21244;-55
2021/06/19 08:36:41;;;;;;;12.03;2.08;;;;;;;26.69;50.29;101034.56;1731748;82;21450;-56
2021/06/19 08:39:48;;;;;;;7.37;2.05;;;;;;;26.84;49.74;101029.66;1731935;83;21233;-54
2021/06/19 08:42:53;;;;;;;9.93;2.30;;;;;;;27.00;49.43;101030.95;1730611;82;21375;-54
2021/06/19 08:45:59;;;;;;;19.60;2.12;;;;;;;27.13;49.04;101024.84;1731208;82;21356;-55
2021/06/19 08:49:04;;;;;;;6.87;2.30;;;;;;;27.14;48.72;101022.34;1731884;82;21370;-55
2021/06/19 08:52:12;;;;;;;6.22;1.98;;;;;;;27.03;48.67;101029.00;1731999;82;21229;-54
2021/06/19 08:55:20;;;;;;;7.78;2.58;;;;;;;26.94;48.44;101033.39;1730406;82;21370;-54
2021/06/19 08:58:25;;;;;;;13.15;2.50;;;;;;;26.91;48.92;101033.93;1715823;83;21844;-55
2021/06/19 09:01:31;;;;;;;10.93;1.90;;;;;;;27.02;49.54;101030.09;1705376;83;21817;-55
2021/06/19 09:04:37;;;;;;;9.13;2.50;;;;;;;27.21;49.29;101022.11;1731426;82;21355;-55
2021/06/19 09:07:48;;;;;;;6.65;1.82;;;;;;;27.39;49.15;101020.30;1731411;82;21809;-56
2021/06/19 09:10:54;;;;;;;10.48;2.10;;;;;;;27.58;49.07;101021.55;1686012;82;21237;-56
2021/06/19 09:14:09;;;;;;;7.05;1.70;;;;;;;27.74;48.66;101012.08;1687945;82;21762;-55
2021/06/19 09:17:15;;;;;;;7.85;2.35;;;;;;;27.82;49.29;101015.23;1716543;83;21204;-56
2021/06/19 09:20:20;;;;;;;5.08;1.70;;;;;;;27.95;46.91;101015.31;1716870;83;21283;-55
2021/06/19 09:23:37;;;;;;;10.75;2.55;;;;;;;28.03;45.31;101004.08;1717419;83;21200;-56
2021/06/19 09:26:42;;;;;;;4.33;1.57;;;;;;;28.08;46.02;101009.73;1716144;83;21749;-55
2021/06/19 09:29:46;;;;;;;10.35;1.70;;;;;;;28.16;45.94;101003.58;1717999;83;21254;-56
2021/06/19 09:32:55;;;;;;;12.43;2.20;;;;;;;28.25;46.54;101002.77;1720286;82;21866;-55
2021/06/19 09:36:01;;;;;;;13.32;1.70;;;;;;;28.35;46.30;101003.35;1717556;82;21254;-55
2021/06/19 09:39:11;;;;;;;7.60;1.55;;;;;;;28.33;44.26;101001.36;1743929;82;21279;-54
2021/06/19 09:42:17;;;;;;;9.13;1.82;;;;;;;28.29;45.56;100984.17;1739227;82;22243;-55
2021/06/19 09:45:28;;;;;;;10.18;1.75;;;;;;;28.40;46.02;100980.83;1741063;82;21230;-54
2021/06/19 09:48:36;;;;;;;7.20;2.02;;;;;;;28.50;45.46;100975.23;1742564;82;21181;-56
2021/06/19 09:51:43;;;;;;;9.43;1.60;;;;;;;28.60;46.46;100963.98;1740794;82;21193;-54
2021/06/19 09:54:47;;;;;;;9.70;1.67;;;;;;;28.70;45.39;100969.05;1739083;82;21235;-56
2021/06/19 09:57:56;;;;;;;7.22;1.27;;;;;;;28.72;45.44;100958.91;1739494;82;22002;-56
2021/06/19 10:01:01;;;;;;;11.30;2.02;;;;;;;28.76;45.79;100963.72;1738961;82;21808;-56
2021/06/19 10:04:09;;;;;;;9.65;1.42;;;;;;;28.83;44.63;100951.59;1738788;82;21177;-55
2021/06/19 10:07:15;;;;;;;17.73;2.35;;;;;;;28.90;44.52;100953.57;1739148;82;21736;-55
2021/06/19 10:10:21;;;;;;;16.95;2.25;;;;;;;29.05;45.38;100944.27;1737427;80;21704;-56
2021/06/19 10:13:26;;;;;;;11.20;1.80;;;;;;;29.17;44.05;100942.00;1738734;82;21221;-55
2021/06/19 10:16:31;;;;;;;11.65;2.10;;;;;;;29.26;43.40;100941.70;1739350;82;21366;-55
2021/06/19 10:19:36;;;;;;;4.90;1.50;;;;;;;29.32;43.84;100940.55;1716767;81;21383;-55
2021/06/19 10:22:42;;;;;;;12.93;1.75;;;;;;;29.37;43.29;100937.72;1679252;85;21228;-56
2021/06/19 10:25:48;;;;;;;11.75;1.95;;;;;;;29.40;44.02;100938.55;1738849;81;21860;-55
2021/06/19 10:28:55;;;;;;;15.03;2.15;;;;;;;29.40;43.15;100932.09;1699412;82;21476;-57
2021/06/19 10:32:01;;;;;;;8.18;1.67;;;;;;;29.45;42.42;100930.08;1719595;82;21285;-57
2021/06/19 10:35:06;;;;;;;12.63;1.55;;;;;;;29.53;42.15;100949.24;1679636;85;21220;-58
2021/06/19 10:38:24;;;;;;;7.85;1.45;;;;;;;29.61;42.39;100940.75;1714948;83;21364;-58
2021/06/19 10:41:32;;;;;;;7.97;1.55;;;;;;;29.71;42.71;100937.38;1715689;83;21395;-57
2021/06/19 10:45:02;;;;;;;12.18;1.80;;;;;;;29.91;42.43;100927.38;1729174;82;21364;-56
2021/06/19 10:48:14;;;;;;;18.00;2.50;;;;;;;30.12;41.52;100926.15;1734416;82;21579;-58
2021/06/19 10:51:29;;;;;;;19.48;1.80;;;;;;;30.22;39.97;100919.03;1726122;82;21371;-57
2021/06/19 10:54:34;;;;;;;9.35;1.80;;;;;;;30.28;41.08;100926.92;1715202;83;21920;-57
2021/06/19 10:57:55;;;;;;;8.53;1.55;;;;;;;30.54;40.75;100926.44;1714994;83;21905;-57
2021/06/19 11:01:09;;;;;;;10.85;2.10;;;;;;;30.78;39.72;100934.22;1715581;83;21308;-57
2021/06/19 11:04:47;;;;;;;11.97;1.67;;;;;;;31.01;39.38;100933.42;1680019;85;21237;-58
2021/06/19 11:08:01;;;;;;;12.25;1.60;;;;;;;31.18;39.32;100914.86;1714170;83;21368;-58
2021/06/19 11:11:08;;;;;;;11.50;1.60;;;;;;;31.32;38.64;100922.09;1716196;80;21356;-57
2021/06/19 11:14:13;;;;;;;10.75;1.87;;;;;;;31.48;38.47;100921.63;1729589;82;21318;-57
2021/06/19 11:17:31;;;;;;;11.20;1.80;;;;;;;31.48;37.29;100912.28;1717961;83;21220;-55
2021/06/19 11:20:37;;;;;;;11.60;1.60;;;;;;;31.47;37.49;100909.20;1722549;80;21188;-58
2021/06/19 11:24:13;;;;;;;12.00;2.33;;;;;;;31.53;38.33;100898.08;1733880;80;21203;-58
2021/06/19 11:27:20;;;;;;;11.73;1.98;;;;;;;31.59;38.09;100899.13;1728762;82;21227;-57
2021/06/19 11:30:47;;;;;;;8.68;1.85;;;;;;;31.69;37.30;100896.74;1717429;83;21243;-58
2021/06/19 11:33:55;;;;;;;13.43;2.47;;;;;;;31.75;37.92;100889.30;1717541;83;21227;-58
2021/06/19 11:37:07;;;;;;;14.20;1.75;;;;;;;31.84;37.19;100902.25;1717682;83;21748;-58
2021/06/19 11:40:14;;;;;;;8.18;1.70;;;;;;;31.82;37.62;100901.11;1717450;83;21236;-59
2021/06/19 11:43:19;;;;;;;12.58;1.95;;;;;;;31.84;38.46;100897.41;1718766;83;21757;-58
2021/06/19 11:46:28;;;;;;;20.15;2.10;;;;;;;31.88;38.21;100899.06;1717369;83;21238;-58
2021/06/19 11:49:35;;;;;;;13.78;1.50;;;;;;;31.87;37.96;100898.81;1717390;83;21172;-59
2021/06/19 11:52:40;;;;;;;3.95;1.37;;;;;;;31.92;38.90;100888.83;1718125;83;21330;-58
2021/06/19 11:55:45;;;;;;;8.35;1.87;;;;;;;32.04;38.97;100882.13;1718253;83;21278;-59
2021/06/19 11:58:56;;;;;;;8.00;1.77;;;;;;;32.08;38.52;100888.85;1718281;83;21219;-58
2021/06/19 12:02:03;;;;;;;8.45;1.95;;;;;;;32.09;38.64;100886.31;1718055;83;21212;-58
2021/06/19 12:05:25;;;;;;;7.67;1.40;;;;;;;32.18;38.12;100889.28;1724493;80;21237;-58
2021/06/19 12:08:35;;;;;;;9.43;1.80;;;;;;;32.15;37.78;100878.55;1737776;82;21200;-58
2021/06/19 12:11:46;;;;;;;14.53;2.52;;;;;;;32.07;38.70;100876.41;1739972;82;21767;-58
2021/06/19 12:14:51;;;;;;;14.95;2.33;;;;;;;31.98;39.30;100872.02;1732466;82;21268;-58
2021/06/19 12:17:58;;;;;;;13.68;2.17;;;;;;;31.92;39.40;100870.42;1732718;82;21212;-63
2021/06/19 12:21:14;;;;;;;13.83;2.30;;;;;;;31.96;39.88;100876.58;1732225;83;21378;-57
2021/06/19 12:24:41;;;;;;;11.30;2.12;;;;;;;32.07;41.28;100870.74;1732238;83;21209;-59
2021/06/19 12:27:48;;;;;;;9.05;1.67;;;;;;;32.18;40.81;100863.20;1732476;82;21634;-58
2021/06/19 12:31:06;;;;;;;14.20;2.02;;;;;;;32.15;40.91;100869.48;1732340;82;21243;-58
2021/06/19 12:34:12;;;;;;;12.37;1.80;;;;;;;32.18;40.79;100860.37;1731902;82;21221;-59
2021/06/19 12:37:17;;;;;;;8.23;1.67;;;;;;;32.21;41.39;100865.42;1732300;83;21351;-58
2021/06/19 12:40:22;;;;;;;6.83;1.80;;;;;;;32.25;41.94;100866.52;1732338;82;21240;-59
2021/06/19 12:43:28;;;;;;;7.60;1.77;;;;;;;32.32;42.08;100869.78;1732547;82;21216;-58
2021/06/19 12:46:33;;;;;;;8.18;1.80;;;;;;;32.40;41.72;100868.27;1732448;82;21946;-61
2021/06/19 12:49:43;;;;;;;9.95;2.37;;;;;;;32.32;41.39;100864.11;1732149;83;21230;-59
2021/06/19 12:53:16;;;;;;;10.93;1.82;;;;;;;32.18;40.73;100862.36;1732308;82;21518;-57
2021/06/19 12:56:23;;;;;;;7.35;1.65;;;;;;;32.03;40.88;100861.44;1732342;82;21343;-59
2021/06/19 12:59:31;;;;;;;8.33;1.95;;;;;;;31.84;40.88;100852.69;1732915;82;21212;-57
2021/06/19 13:02:36;;;;;;;9.00;2.15;;;;;;;31.65;41.22;100848.95;1732388;83;21283;-58
2021/06/19 13:05:41;;;;;;;12.37;2.00;;;;;;;31.47;41.90;100848.33;1716348;82;21370;-58
2021/06/19 13:08:47;;;;;;;17.10;2.00;;;;;;;31.45;42.54;100837.31;1732530;82;21590;-56
2021/06/19 13:11:53;;;;;;;9.00;1.80;;;;;;;31.54;42.41;100835.48;1732227;83;21379;-59
2021/06/19 13:15:19;;;;;;;9.80;1.65;;;;;;;31.72;42.03;100837.52;1744352;82;21322;-57
2021/06/19 13:18:25;;;;;;;13.08;2.10;;;;;;;31.70;42.07;100827.62;1747995;82;21346;-58
2021/06/19 13:21:35;;;;;;;12.07;1.90;;;;;;;31.51;41.65;100827.60;1748074;82;21366;-56
2021/06/19 13:24:42;;;;;;;9.05;1.60;;;;;;;31.41;41.68;100832.56;1747984;82;21370;-57
2021/06/19 13:27:58;;;;;;;11.93;1.90;;;;;;;31.42;41.72;100832.83;1747978;82;21413;-58
2021/06/19 13:31:19;;;;;;;11.75;2.75;;;;;;;31.27;41.88;100835.23;1723020;81;21396;-57
2021/06/19 13:34:30;;;;;;;13.20;2.15;;;;;;;31.19;42.42;100836.48;1718181;83;21196;-57
2021/06/19 13:37:43;;;;;;;11.80;2.02;;;;;;;31.14;42.63;100835.12;1737015;82;21208;-58
2021/06/19 13:40:48;;;;;;;15.75;2.00;;;;;;;31.22;43.42;100824.56;1746924;82;21406;-59
2021/06/19 13:43:54;;;;;;;8.88;1.80;;;;;;;31.30;43.37;100824.76;1715440;82;22165;-59
2021/06/19 13:47:00;;;;;;;14.78;2.50;;;;;;;31.41;42.93;100831.16;1717312;83;21200;-58
2021/06/19 13:50:06;;;;;;;11.97;2.45;;;;;;;31.45;42.35;100820.33;1717131;83;21278;-59
2021/06/19 13:53:12;;;;;;;9.53;1.72;;;;;;;31.49;41.96;100826.23;1719798;82;21184;-59
2021/06/19 13:56:17;;;;;;;17.07;2.05;;;;;;;31.52;42.52;100829.31;1747442;81;21234;-57
2021/06/19 13:59:22;;;;;;;11.80;2.40;;;;;;;31.51;41.29;100826.75;1747190;82;21196;-59
2021/06/19 14:02:27;;;;;;;9.80;1.57;;;;;;;31.49;41.72;100821.99;1747096;82;21196;-56
2021/06/19 14:05:32;;;;;;;13.22;1.62;;;;;;;31.43;40.28;100818.97;1747836;82;21377;-56
2021/06/19 14:08:38;;;;;;;7.37;1.80;;;;;;;31.27;40.79;100818.85;1747560;82;21322;-57
2021/06/19 14:11:44;;;;;;;10.80;1.45;;;;;;;31.23;41.04;100820.02;1752297;81;21854;-56
2021/06/19 14:14:50;;;;;;;12.18;2.00;;;;;;;31.19;40.85;100820.34;1745908;81;21374;-56
2021/06/19 14:17:57;;;;;;;12.23;1.87;;;;;;;31.16;41.43;100828.02;1738180;82;21768;-55
2021/06/19 14:21:03;;;;;;;6.87;2.35;;;;;;;31.18;41.61;100821.48;1746927;82;21969;-56
2021/06/19 14:24:14;;;;;;;8.13;1.82;;;;;;;31.18;42.70;100816.39;1745580;82;21207;-56
2021/06/19 14:27:23;;;;;;;10.93;2.12;;;;;;;31.19;41.94;100818.92;1747379;82;21193;-56